Last 24 Hours

Top Stn/Summit - 11,053ft

5 Minute Data | America/Los_Angeles
as of 4/17/24 8:01 AM PDT
Date & Time Temp (°F) RH (%) Dew Pt (°F) Wet Bulb (°F) Wind Dir (°) Wind Spd (mph) Wind Gust (mph) Wind Gst Dir (°)
4/17/24 - 0755 32.8 45 13.8 27.1 SSW | 206 19.0 23.4 SSW | 206
4/17/24 - 0750 32.6 45 13.4 26.8 SSW | 211 18.1 20.4 SSW | 202
4/17/24 - 0745 32.4 45 13.6 26.7 SSW | 210 16.6 21.2 SSW | 209
4/17/24 - 0740 32.6 47 14.5 27.1 SSW | 209 15.9 24.7 SSW | 206
4/17/24 - 0735 33.0 44 13.5 27.1 SSW | 206 17.0 20.2 SSW | 202
4/17/24 - 0730 33.3 44 13.9 27.4 SSW | 206 17.5 20.2 SSW | 203
4/17/24 - 0725 33.9 43 13.8 27.8 SSW | 204 17.1 19.5 SSW | 199
4/17/24 - 0720 33.8 44 14.0 27.7 SSW | 203 16.8 19.7 SSW | 200
4/17/24 - 0715 33.4 44 13.8 27.4 SSW | 199 14.0 16.4 SSW | 208
4/17/24 - 0710 33.4 44 13.9 27.5 SSW | 199 13.0 18.6 SSW | 203
4/17/24 - 0705 33.0 44 13.2 27.0 SSW | 193 12.2 15.2 S | 191
4/17/24 - 0700 32.6 45 13.4 26.8 SSW | 201 12.7 15.7 SSW | 204
4/17/24 - 0655 32.0 45 13.3 26.4 SSW | 196 13.7 16.4 SSW | 194
4/17/24 - 0650 31.9 45 13.2 26.3 SSW | 200 15.9 20.5 SSW | 196
4/17/24 - 0645 32.4 45 13.2 26.6 SSW | 210 15.0 19.6 SSW | 207
4/17/24 - 0640 32.2 45 13.1 26.6 SSW | 203 14.6 16.6 SSW | 207
4/17/24 - 0635 32.1 45 13.1 26.5 SSW | 204 11.7 14.8 SSW | 200
4/17/24 - 0630 31.7 45 12.6 26.0 S | 186 12.8 14.0 S | 188
4/17/24 - 0625 31.8 45 12.7 26.2 S | 173 13.0 14.8 SSE | 168
4/17/24 - 0620 31.5 45 12.5 26.0 SSE | 168 14.7 16.2 S | 169
4/17/24 - 0615 31.9 44 12.5 26.2 S | 176 13.5 15.7 S | 171
4/17/24 - 0610 32.2 41 11.1 26.1 S | 169 12.2 15.4 S | 170
4/17/24 - 0605 32.8 39 10.7 26.4 S | 169 12.6 14.8 SSE | 157
4/17/24 - 0600 32.5 41 11.2 26.3 SSE | 163 13.2 15.6 SSE | 151
4/17/24 - 0555 32.6 39 10.4 26.2 SSE | 165 13.6 15.3 S | 178
4/17/24 - 0550 32.1 40 10.4 25.9 SSE | 157 15.5 17.0 SSE | 157
4/17/24 - 0545 31.8 42 11.3 25.9 SSE | 160 16.0 17.2 SSE | 155
4/17/24 - 0540 32.4 41 11.4 26.3 SSE | 156 16.2 19.1 SSE | 153
4/17/24 - 0535 32.5 40 11.0 26.3 SSE | 152 17.1 19.7 SSE | 164
4/17/24 - 0530 32.7 40 10.9 26.4 SE | 145 17.2 18.4 SE | 146
4/17/24 - 0525 33.1 38 10.3 26.5 SE | 145 17.5 20.3 SSE | 147
4/17/24 - 0520 33.3 38 10.3 26.7 SE | 142 19.2 20.9 SE | 144
4/17/24 - 0515 33.4 37 9.9 26.7 SE | 140 18.1 20.3 SE | 141
4/17/24 - 0510 32.7 39 10.4 26.3 SE | 139 17.4 20.7 SE | 143
4/17/24 - 0505 33.3 37 10.0 26.6 SE | 138 17.7 19.9 SE | 131
4/17/24 - 0500 33.0 38 10.2 26.4 SE | 140 17.9 20.0 SE | 139
4/17/24 - 0455 33.1 38 10.2 26.5 SE | 138 16.7 18.5 SE | 140
4/17/24 - 0450 33.1 38 10.0 26.5 SE | 141 18.1 21.1 SE | 144
4/17/24 - 0445 33.3 38 10.3 26.7 SE | 141 18.4 20.6 SE | 141
4/17/24 - 0440 33.3 38 10.7 26.7 SE | 142 18.8 21.0 SE | 144
4/17/24 - 0435 33.2 38 10.6 26.6 SE | 144 20.7 25.4 SSE | 148
4/17/24 - 0430 33.5 38 10.6 26.9 SE | 146 21.8 23.4 SSE | 147
4/17/24 - 0425 32.0 42 11.7 26.1 SSE | 152 20.2 23.3 SE | 145
4/17/24 - 0420 32.6 42 12.0 26.6 SE | 145 20.2 23.6 SE | 146
4/17/24 - 0415 33.0 39 10.8 26.5 SE | 144 19.2 22.7 SE | 145
4/17/24 - 0410 32.5 41 11.5 26.4 SE | 146 19.9 22.9 SE | 142
4/17/24 - 0405 31.8 42 11.4 25.9 SSE | 151 19.9 23.4 SSE | 147
4/17/24 - 0400 31.5 45 12.6 26.0 SSE | 152 19.4 21.3 SSE | 148
4/17/24 - 0355 32.4 42 11.9 26.4 SSE | 150 22.0 24.9 SSE | 151
4/17/24 - 0350 32.2 43 12.4 26.4 SSE | 155 21.8 26.6 SSE | 151
4/17/24 - 0345 33.2 41 11.9 26.9 SSE | 149 23.8 27.0 SSE | 147
4/17/24 - 0340 32.1 42 11.5 26.1 SSE | 158 19.4 24.3 SE | 144
4/17/24 - 0335 31.6 50 15.3 26.6 S | 175 17.2 20.8 S | 182
4/17/24 - 0330 32.2 49 15.3 27.0 SSE | 168 17.5 20.8 SSE | 162
4/17/24 - 0325 31.8 51 15.6 26.8 S | 179 15.6 17.8 S | 175
4/17/24 - 0320 31.5 52 16.0 26.7 S | 186 14.6 17.2 S | 186
4/17/24 - 0315 31.4 54 16.7 26.8 S | 189 16.4 19.8 S | 189
4/17/24 - 0310 31.6 52 16.1 26.8 S | 181 14.9 16.7 S | 178
4/17/24 - 0305 31.2 56 17.5 26.8 S | 184 16.4 18.0 S | 190
4/17/24 - 0300 31.3 56 17.3 26.9 S | 181 16.5 18.2 S | 183
4/17/24 - 0255 31.3 55 17.2 26.8 S | 180 17.5 20.0 S | 171
4/17/24 - 0250 31.8 50 15.3 26.7 S | 174 20.1 23.4 S | 175
4/17/24 - 0245 31.7 51 15.5 26.7 SSE | 168 20.5 22.7 SSE | 168
4/17/24 - 0240 31.7 50 15.2 26.6 SSE | 167 21.0 23.6 S | 172
4/17/24 - 0235 33.1 44 13.4 27.1 SSE | 154 24.2 26.9 SSE | 150
4/17/24 - 0230 33.4 39 11.4 27.0 SSE | 148 24.1 26.2 SE | 146
4/17/24 - 0225 32.4 44 13.0 26.6 SSE | 150 23.0 24.8 SSE | 149
4/17/24 - 0220 33.1 46 14.5 27.4 SSE | 155 21.5 25.5 SE | 144
4/17/24 - 0215 33.7 41 12.2 27.3 SSE | 151 22.4 25.4 SE | 145
4/17/24 - 0210 33.0 42 12.6 26.9 SSE | 150 20.1 23.2 SE | 140
4/17/24 - 0205 33.9 40 12.0 27.4 SE | 144 22.0 24.7 SE | 142
4/17/24 - 0200 33.6 43 13.7 27.5 SE | 145 21.8 24.7 SE | 145
4/17/24 - 0155 33.9 39 11.4 27.3 SE | 144 21.6 22.8 SE | 142
4/17/24 - 0150 33.5 41 12.3 27.2 SE | 145 21.3 23.2 SSE | 147
4/17/24 - 0145 33.8 41 12.6 27.4 SSE | 147 20.6 23.1 SSE | 150
4/17/24 - 0140 34.1 39 12.0 27.5 SE | 143 20.6 22.9 SE | 143
4/17/24 - 0135 33.5 42 13.1 27.4 SSE | 150 21.2 23.4 SE | 143
4/17/24 - 0130 33.4 43 13.5 27.4 SSE | 149 22.2 24.1 SE | 145
4/17/24 - 0125 33.4 42 12.9 27.3 SSE | 151 23.3 25.0 SE | 146
4/17/24 - 0120 33.8 43 13.6 27.6 SSE | 149 24.9 27.3 SE | 145
4/17/24 - 0115 33.3 45 14.2 27.5 SSE | 156 22.0 26.2 SSE | 148
4/17/24 - 0110 33.8 42 13.1 27.5 SSE | 152 24.1 28.6 SE | 145
4/17/24 - 0105 32.7 49 15.5 27.4 SSE | 158 20.8 24.1 SSE | 149
4/17/24 - 0100 32.5 47 14.5 27.0 SSE | 160 21.2 24.0 S | 171
4/17/24 - 0055 32.8 48 15.1 27.3 SSE | 154 20.9 23.4 SSE | 148
4/17/24 - 0050 32.8 47 14.9 27.3 SSE | 152 21.6 24.3 SSE | 150
4/17/24 - 0045 33.2 47 15.0 27.6 SSE | 152 22.3 25.8 SSE | 147
4/17/24 - 0040 33.0 47 14.9 27.4 SSE | 155 23.0 27.2 SSE | 163
4/17/24 - 0035 33.0 47 14.9 27.4 SSE | 152 22.6 25.6 SSE | 153
4/17/24 - 0030 32.7 48 15.4 27.4 SSE | 154 22.2 27.0 SE | 144
4/17/24 - 0025 33.6 48 15.8 28.0 SSE | 156 20.2 26.1 SSE | 154
4/17/24 - 0020 33.1 47 15.2 27.5 SSE | 153 17.8 21.8 SSE | 154
4/17/24 - 0015 32.8 49 15.7 27.5 SSE | 156 14.7 17.5 SSE | 168
4/17/24 - 0010 33.5 46 14.8 27.7 SSE | 149 15.3 19.3 SSE | 154
4/17/24 - 0005 33.1 53 18.0 28.2 SSE | 162 14.0 17.0 SSE | 155
4/17/24 - 0000 33.5 52 17.7 28.4 SSE | 163 16.8 22.1 SSE | 150
4/16/24 - 2355 33.1 45 14.3 27.3 SSE | 161 18.3 22.6 SSE | 150
4/16/24 - 2350 33.3 50 16.8 28.0 SSE | 163 17.7 21.5 SSE | 164
4/16/24 - 2345 32.8 56 18.9 28.2 S | 173 14.8 18.1 SSE | 165
4/16/24 - 2340 33.1 61 21.1 29.0 S | 179 13.0 17.4 S | 174
4/16/24 - 2335 34.0 50 17.4 28.6 SSE | 165 16.6 20.5 SSE | 164
4/16/24 - 2330 34.1 46 15.4 28.2 SSE | 156 15.5 18.6 SSE | 154
4/16/24 - 2325 33.9 46 15.4 28.1 SSE | 160 12.9 18.6 SSE | 160
4/16/24 - 2320 34.4 45 15.2 28.4 SSE | 156 11.9 15.8 SE | 142
4/16/24 - 2315 34.5 43 14.1 28.2 SSE | 149 9.6 12.5 ESE | 122
4/16/24 - 2310 34.7 41 13.4 28.2 SSE | 155 8.1 13.0 SE | 137
4/16/24 - 2305 34.5 40 12.4 27.8 SE | 146 13.7 17.1 SE | 130
4/16/24 - 2300 33.9 42 13.1 27.6 SE | 138 15.6 23.3 SE | 127
4/16/24 - 2255 34.2 42 13.8 28.0 SE | 143 12.1 16.8 SE | 140
4/16/24 - 2250 34.5 39 12.2 27.8 SE | 141 15.3 21.8 SE | 144
4/16/24 - 2245 34.5 41 13.3 28.0 SE | 136 14.9 21.8 SE | 140
4/16/24 - 2240 33.8 47 15.5 28.0 SSE | 153 14.0 18.1 SE | 144
4/16/24 - 2235 34.5 42 13.9 28.2 SE | 140 13.1 17.3 SE | 143
4/16/24 - 2230 35.1 43 15.0 28.8 SE | 141 12.2 17.8 SE | 124
4/16/24 - 2225 34.4 44 14.8 28.3 SE | 139 13.5 16.9 SSE | 149
4/16/24 - 2220 34.1 41 13.0 27.7 SE | 142 12.7 16.5 SE | 139
4/16/24 - 2215 34.4 49 17.3 28.9 SSE | 152 12.6 15.1 SE | 142
4/16/24 - 2210 34.5 47 16.3 28.7 SSE | 148 12.7 15.3 SSE | 147
4/16/24 - 2205 33.8 51 17.8 28.6 SSE | 164 10.1 11.7 S | 178
4/16/24 - 2200 33.7 53 18.5 28.7 S | 169 12.5 15.6 SE | 142
4/16/24 - 2155 33.9 60 21.6 29.6 SSE | 165 6.5 9.6 SE | 126
4/16/24 - 2150 33.1 71 24.6 30.0 S | 182 6.4 10.1 SSW | 192
4/16/24 - 2145 33.8 69 24.6 30.4 S | 180 8.0 11.4 SSE | 148
4/16/24 - 2140 33.8 65 23.4 30.1 S | 174 8.2 9.9 SSE | 158
4/16/24 - 2135 33.1 71 24.6 30.1 SSW | 192 9.8 11.7 SSE | 167
4/16/24 - 2130 33.3 69 24.4 30.1 S | 188 6.7 10.2 SSW | 193
4/16/24 - 2125 33.2 69 24.0 29.9 S | 188 8.7 11.0 S | 173
4/16/24 - 2120 33.1 72 24.9 30.1 SSW | 193 8.5 10.1 SSW | 198
4/16/24 - 2115 33.4 72 25.3 30.5 S | 191 9.1 12.2 SSW | 196
4/16/24 - 2110 33.1 74 25.7 30.4 SSW | 196 10.5 13.2 SSW | 199
4/16/24 - 2105 33.0 72 25.0 30.1 SSW | 192 10.5 14.2 S | 189
4/16/24 - 2100 32.7 68 23.3 29.4 SSW | 194 14.3 16.5 SSW | 194
4/16/24 - 2055 32.6 74 25.2 29.9 SSW | 197 12.3 14.9 SSW | 203
4/16/24 - 2050 33.1 74 25.6 30.3 SSW | 203 11.0 15.1 SSW | 205
4/16/24 - 2045 33.1 73 25.5 30.3 SSW | 197 11.4 13.3 SSW | 197
4/16/24 - 2040 32.7 74 25.4 30.0 SSW | 203 13.2 15.5 SW | 214
4/16/24 - 2035 33.0 73 25.3 30.2 SSW | 201 15.6 21.1 SSW | 207
4/16/24 - 2030 32.5 74 25.2 29.8 SSW | 198 15.5 19.7 SSW | 201
4/16/24 - 2025 31.9 75 25.0 29.4 S | 188 13.1 15.9 SSW | 198
4/16/24 - 2020 31.6 76 25.1 29.3 SSW | 194 14.7 18.0 SSW | 201
4/16/24 - 2015 31.8 76 25.1 29.3 SSW | 196 16.2 18.5 S | 190
4/16/24 - 2010 31.5 76 24.9 29.1 SSW | 197 17.4 19.5 SSW | 196
4/16/24 - 2005 31.6 75 24.8 29.2 SSW | 199 17.4 20.5 SSW | 198
4/16/24 - 2000 31.8 75 24.8 29.3 SSW | 199 14.3 15.5 SSW | 198
4/16/24 - 1955 31.9 76 25.2 29.4 SSW | 196 15.7 16.8 SSW | 195
4/16/24 - 1950 31.9 76 25.2 29.4 SSW | 192 15.1 16.6 SSW | 195
4/16/24 - 1945 31.9 76 25.2 29.5 SSW | 194 16.4 17.9 SSW | 194
4/16/24 - 1940 32.0 74 24.8 29.4 SSW | 194 16.1 18.1 S | 190
4/16/24 - 1935 31.9 76 25.1 29.4 SSW | 195 16.0 17.4 SSW | 198
4/16/24 - 1930 32.1 77 25.6 29.7 SSW | 195 16.2 17.1 SSW | 193
4/16/24 - 1925 32.1 75 25.2 29.6 SSW | 196 14.9 15.8 SSW | 194
4/16/24 - 1920 32.0 75 25.0 29.4 SSW | 194 14.8 16.6 SSW | 194
4/16/24 - 1915 32.0 75 25.0 29.5 SSW | 193 16.0 16.9 SSW | 194
4/16/24 - 1910 32.5 75 25.4 29.9 SSW | 194 16.0 17.2 SSW | 193
4/16/24 - 1905 32.5 74 25.3 29.8 SSW | 193 15.9 17.9 SSW | 193
4/16/24 - 1900 32.7 74 25.2 30.0 SSW | 194 17.3 19.4 SSW | 195
4/16/24 - 1855 33.2 73 25.4 30.3 SSW | 193 18.9 20.5 SSW | 194
4/16/24 - 1850 33.3 73 25.7 30.5 SSW | 192 19.1 21.4 SSW | 193
4/16/24 - 1845 33.9 70 25.3 30.8 SSW | 192 17.6 19.4 SSW | 193
4/16/24 - 1840 34.2 71 25.8 31.2 SSW | 193 16.8 18.6 SSW | 194
4/16/24 - 1835 34.2 71 25.9 31.2 SSW | 196 16.5 18.2 SSW | 196
4/16/24 - 1830 34.1 73 26.3 31.2 SSW | 197 15.3 17.3 SSW | 198
4/16/24 - 1825 34.0 73 26.3 31.2 SSW | 195 16.5 17.4 SSW | 198
4/16/24 - 1820 34.0 73 26.3 31.2 SSW | 192 17.4 18.8 SSW | 194
4/16/24 - 1815 34.2 73 26.6 31.4 SSW | 192 19.1 21.6 SSW | 194
4/16/24 - 1810 34.2 73 26.5 31.4 SSW | 197 18.8 20.5 SSW | 197
4/16/24 - 1805 34.4 72 26.4 31.4 SSW | 202 18.3 20.9 SSW | 200
4/16/24 - 1800 34.7 72 26.7 31.7 SSW | 197 17.7 20.0 SSW | 193
4/16/24 - 1755 34.7 72 26.5 31.6 SSW | 195 17.7 21.1 SSW | 193
4/16/24 - 1750 34.6 71 26.3 31.5 SSW | 193 18.0 20.6 SSW | 196
4/16/24 - 1745 34.7 70 25.8 31.4 SSW | 194 19.0 21.6 SSW | 198
4/16/24 - 1740 34.6 71 26.2 31.5 SSW | 198 20.6 23.0 SSW | 196
4/16/24 - 1735 34.7 70 26.1 31.5 SSW | 198 19.5 22.1 SSW | 198
4/16/24 - 1730 34.0 71 25.7 31.0 SSW | 197 20.4 24.8 SSW | 199
4/16/24 - 1725 33.9 72 25.7 30.9 SSW | 193 19.0 22.8 SSW | 198
4/16/24 - 1720 34.0 70 25.4 30.9 SSW | 193 18.7 22.4 SSW | 194
4/16/24 - 1715 34.6 69 25.4 31.2 SSW | 199 21.1 25.4 SSW | 196
4/16/24 - 1710 35.0 69 26.0 31.6 SSW | 204 20.0 23.6 SSW | 203
4/16/24 - 1705 35.2 68 25.8 31.7 SSW | 202 17.1 19.4 SSW | 203
4/16/24 - 1700 35.4 68 26.0 31.9 SSW | 206 19.6 22.7 SSW | 206
4/16/24 - 1655 34.4 70 25.6 31.1 SSW | 198 19.9 24.7 SSW | 198
4/16/24 - 1650 33.8 69 24.8 30.5 SSW | 194 22.2 27.9 S | 190
4/16/24 - 1645 33.8 69 24.7 30.5 S | 189 20.0 24.3 S | 186
4/16/24 - 1640 33.8 70 24.9 30.6 SSW | 192 20.8 25.4 S | 191
4/16/24 - 1635 34.2 68 24.7 30.8 SSW | 192 21.4 24.1 SSW | 194
4/16/24 - 1630 34.1 66 24.1 30.5 S | 190 22.4 27.5 S | 185
4/16/24 - 1625 34.1 66 23.8 30.4 SSW | 192 20.7 24.4 SSW | 192
4/16/24 - 1620 34.4 64 23.3 30.4 SSW | 194 21.0 25.4 SSW | 200
4/16/24 - 1615 34.5 64 23.7 30.6 S | 190 22.6 28.1 SSW | 196
4/16/24 - 1610 34.1 64 23.4 30.3 SSW | 194 22.9 27.2 SSW | 199
4/16/24 - 1605 34.1 63 22.9 30.2 SSW | 193 24.8 29.6 S | 191
4/16/24 - 1600 34.2 64 23.4 30.4 SSW | 194 23.1 26.7 S | 187
4/16/24 - 1555 34.0 64 23.0 30.1 SSW | 195 23.9 28.2 S | 186
4/16/24 - 1550 33.8 65 23.2 30.0 SSW | 193 24.8 29.5 S | 190
4/16/24 - 1545 33.6 66 23.3 29.9 S | 190 26.5 30.5 S | 186
4/16/24 - 1540 33.7 65 23.0 29.9 S | 189 25.2 30.8 SSW | 202
4/16/24 - 1535 33.7 64 22.9 29.9 SSW | 192 24.5 31.0 SSW | 203
4/16/24 - 1530 33.9 64 23.0 30.0 SSW | 196 27.9 32.2 S | 189
4/16/24 - 1525 33.5 63 22.4 29.6 SSW | 195 26.0 34.4 SSW | 198
4/16/24 - 1520 32.8 65 22.3 29.2 S | 188 27.9 32.8 SSW | 193
4/16/24 - 1515 33.3 63 22.1 29.4 SSW | 194 27.5 32.8 S | 185
4/16/24 - 1510 34.3 60 21.9 30.0 SSW | 205 27.1 36.6 SSW | 206
4/16/24 - 1505 33.9 61 21.8 29.7 SSW | 202 27.2 30.3 SSW | 201
4/16/24 - 1500 35.1 58 21.6 30.4 SSW | 200 24.8 30.7 SSW | 198
4/16/24 - 1455 33.6 59 20.8 29.2 SSW | 196 24.3 30.4 SSW | 205
4/16/24 - 1450 33.6 59 20.6 29.2 SSW | 200 26.6 30.7 SSW | 198
4/16/24 - 1445 33.8 56 19.7 29.1 SSW | 194 24.0 28.1 SSW | 204
4/16/24 - 1440 33.6 60 21.0 29.3 S | 187 23.3 30.8 SSW | 197
4/16/24 - 1435 33.7 59 20.8 29.3 S | 190 22.1 27.6 S | 185
4/16/24 - 1430 33.8 59 21.0 29.4 SSW | 192 23.4 27.1 SSW | 198
4/16/24 - 1425 34.8 56 20.6 30.0 SSW | 192 20.6 25.9 SSW | 199
4/16/24 - 1420 35.7 53 20.3 30.4 SSW | 203 19.6 24.1 SSW | 205
4/16/24 - 1415 36.3 52 20.1 30.7 SSW | 204 19.1 23.2 SSW | 204
4/16/24 - 1410 35.9 54 21.0 30.7 SSW | 202 19.4 21.8 SSW | 197
4/16/24 - 1405 35.9 53 20.6 30.6 SSW | 206 20.2 23.6 SSW | 205
4/16/24 - 1400 35.7 57 21.9 30.8 SSW | 201 18.0 22.1 SSW | 204
4/16/24 - 1355 35.1 56 20.8 30.2 S | 190 17.8 20.9 SSW | 192
4/16/24 - 1350 35.1 54 20.3 30.0 SSW | 193 19.3 24.4 SSW | 196
4/16/24 - 1345 35.1 57 21.6 30.4 SSW | 192 19.2 23.9 SSW | 201
4/16/24 - 1340 35.6 53 20.1 30.3 SSW | 198 19.2 23.2 SSW | 192
4/16/24 - 1335 35.6 55 20.9 30.5 SSW | 196 19.1 24.5 SSW | 198
4/16/24 - 1330 35.0 51 18.8 29.6 SSW | 192 19.5 22.8 SSW | 193
4/16/24 - 1325 34.8 50 18.0 29.3 S | 190 20.0 23.4 SSW | 195
4/16/24 - 1320 34.8 51 18.8 29.5 S | 188 21.6 27.2 SSW | 195
4/16/24 - 1315 34.7 50 18.0 29.2 S | 188 21.1 25.8 S | 186
4/16/24 - 1310 34.7 52 18.9 29.5 S | 189 20.7 25.8 S | 189
4/16/24 - 1305 35.0 51 18.8 29.6 SSW | 192 20.8 28.9 SSW | 195
4/16/24 - 1300 35.1 52 19.3 29.8 SSW | 194 19.3 24.7 SSW | 198
4/16/24 - 1255 35.1 53 19.6 29.9 SSW | 195 18.3 22.5 SSW | 197
4/16/24 - 1250 35.1 50 18.4 29.6 SSW | 194 19.3 23.2 SSW | 207
4/16/24 - 1245 35.9 49 18.5 30.1 SSW | 194 17.8 22.6 SSW | 198
4/16/24 - 1240 36.4 49 19.2 30.6 SSW | 196 15.3 20.2 SSW | 195
4/16/24 - 1235 36.5 48 18.5 30.4 SSW | 197 14.9 17.1 S | 191
4/16/24 - 1230 36.8 46 17.8 30.5 SSW | 198 14.3 20.3 SSW | 198
4/16/24 - 1225 36.9 45 17.7 30.5 SSW | 196 13.2 15.9 SSW | 196
4/16/24 - 1220 37.1 45 18.0 30.7 SSW | 197 13.0 14.9 SSW | 197
4/16/24 - 1215 37.6 44 17.5 30.9 SSW | 197 12.0 14.6 SSW | 195
4/16/24 - 1210 37.7 41 15.9 30.6 SSW | 196 11.2 13.7 SSW | 198
4/16/24 - 1205 37.7 41 16.0 30.6 SSW | 198 10.8 13.4 SSW | 207
4/16/24 - 1200 38.3 41 16.5 31.1 SSW | 200 9.9 12.3 SSW | 209
4/16/24 - 1155 39.1 40 16.6 31.6 SSW | 199 8.7 11.1 SSW | 197
4/16/24 - 1150 39.8 39 16.6 32.0 SSW | 198 7.1 8.1 SSW | 195
4/16/24 - 1145 40.2 39 16.9 32.3 SSW | 197 4.1 6.2 SSW | 195
4/16/24 - 1140 40.0 36 15.3 31.9 SSW | 197 4.7 6.2 SSW | 194
4/16/24 - 1135 41.1 36 16.4 32.7 SSW | 204 3.6 5.7 SSW | 201
4/16/24 - 1130 41.1 36 16.2 32.7 SSW | 202 4.7 6.5 SSW | 204
4/16/24 - 1125 40.8 36 15.7 32.4 SSW | 196 2.4 3.5 SSW | 200
4/16/24 - 1120 40.3 36 15.3 32.0 SSW | 198 3.4 4.2 SSW | 199
4/16/24 - 1115 39.7 38 16.2 31.8 SSW | 195 3.7 4.6 S | 191
4/16/24 - 1110 39.2 39 16.4 31.6 SSW | 199 5.6 6.6 SSW | 199
4/16/24 - 1105 38.6 39 16.0 31.2 SSW | 200 6.9 8.6 SSW | 199
4/16/24 - 1100 38.8 39 15.8 31.3 SSW | 204 6.3 7.9 SSW | 203
4/16/24 - 1055 38.4 38 15.0 30.8 SSW | 208 7.3 9.1 SSW | 205
4/16/24 - 1050 38.0 39 15.1 30.6 SSW | 211 7.8 9.2 SSW | 210
4/16/24 - 1045 37.6 38 14.2 30.1 SSW | 212 8.5 10.7 SW | 216
4/16/24 - 1040 37.3 39 14.6 30.1 SSW | 209 9.4 12.2 SSW | 213
4/16/24 - 1035 36.7 40 14.5 29.7 SSW | 203 10.8 13.8 SSW | 203
4/16/24 - 1030 36.8 39 14.2 29.7 SSW | 203 11.7 14.2 SSW | 208
4/16/24 - 1025 36.6 40 14.7 29.7 SSW | 200 10.5 12.4 SSW | 206
4/16/24 - 1020 36.6 39 14.0 29.5 SSW | 205 11.0 13.0 SSW | 207
4/16/24 - 1015 36.6 38 13.6 29.4 SSW | 207 10.4 12.3 SSW | 210
4/16/24 - 1010 36.5 40 14.7 29.6 SSW | 201 9.8 11.0 SSW | 206
4/16/24 - 1005 35.8 39 13.4 28.9 SSW | 197 10.4 12.4 SSW | 194
4/16/24 - 1000 35.2 40 13.6 28.5 SSW | 194 11.0 12.4 S | 190
4/16/24 - 0955 35.2 41 13.8 28.6 SSW | 192 12.4 14.1 S | 189
4/16/24 - 0950 35.8 39 13.1 28.8 SSW | 195 10.2 12.9 S | 191
4/16/24 - 0945 36.4 38 13.2 29.2 SSW | 197 10.2 12.3 SSW | 200
4/16/24 - 0940 36.0 38 12.8 28.9 SSW | 198 9.7 11.6 SSW | 201
4/16/24 - 0935 37.0 37 13.0 29.5 SSW | 198 7.2 9.1 SSW | 194
4/16/24 - 0930 37.1 37 13.4 29.7 SSW | 201 6.8 8.5 SSW | 198
4/16/24 - 0925 36.8 40 14.8 29.8 SSW | 197 7.7 9.0 SSW | 195
4/16/24 - 0920 37.1 40 15.2 30.0 SSW | 198 6.2 7.3 SSW | 198
4/16/24 - 0915 37.0 40 15.0 29.9 SSW | 198 6.0 6.7 SSW | 198
4/16/24 - 0910 36.6 39 14.0 29.5 SSW | 193 6.6 7.3 SSW | 194
4/16/24 - 0905 37.6 38 14.5 30.2 S | 191 5.7 6.3 S | 191
4/16/24 - 0900 37.9 37 14.0 30.3 SSW | 195 4.7 6.9 SSW | 198
4/16/24 - 0855 40.0 34 14.0 31.6 S | 190 0.4 0.4 SSW | 193
4/16/24 - 0850 40.7 32 13.4 31.9 S | 191 0.4 0.4 S | 186
4/16/24 - 0845 40.1 32 12.9 31.4 SSW | 198 0.4 0.4 SW | 214
4/16/24 - 0840 38.8 32 11.7 30.4 ESE | 111 0.4 0.4 ESE | 111
4/16/24 - 0835 37.0 33 10.4 29.0 ESE | 111 0.4 0.4 ESE | 111
4/16/24 - 0830 33.8 15 -9.4 24.4 ESE | 111 0.4 0.4 ESE | 111
4/16/24 - 0825 33.1 16 -8.3 24.1 ESE | 111 0.4 0.4 ESE | 111
4/16/24 - 0820 32.8 20 -4.3 24.3 ESE | 106 0.4 0.4 ESE | 102
4/16/24 - 0815 33.0 16 -8.6 24.0 E | 100 0.4 0.4 ESE | 112
4/16/24 - 0810 33.6 15 -8.9 24.3 E | 92 0.4 0.4 E | 85
4/16/24 - 0805 33.4 19 -4.2 24.7 E | 83 0.4 0.4 E | 83
4/16/24 - 0800 33.3 22 -1.5 24.9 E | 86 0.4 0.4 E | 87
Max 41.1 77 26.7 32.7 - 27.9 36.6 -
Avg 34.2 51 17.2 28.8 - 15.7 18.7 -
Min 31.2 15 -9.4 24.0 - 0.4 0.4 -